nws-alerts: Checking more than four warning/county codes can delay the loading of your pages. You should use a cron job to get the data.
EllijayWeather Station Historical Data
Daily Summary for December 5, 2018 Units:  Metric    English   Both
Daily Weekly Monthly Yearly Custom
  High: Low: Average:
Temperature: 3.7 °C -3.7 °C 0 °C
Dew Point: -2.1 °C -7 °C -4.6 °C
Humidity: 85% 58% 71%
Wind Speed: 9.7km/h 0km/h 0.6km/h
Wind Gust: 16.1km/h - -
Wind- - WSW
Pressure: 1031 hPa 1022.6 hPa -
Precipitation: 0 mm    
Historical Graphs
 
 
Tabular Data for December 5, 2018
Time Temperature Dew Point Pressure Wind Wind Speed Wind Gust Humidity Rainfall Rate (Hourly) solar
00:04 1.7 °C -2.1 °C 1023.2 hPa Calm     76% 0 mm meteobridge W/m2
00:09 1.7 °C -2.1 °C 1022.9 hPa Calm     76% 0 mm meteobridge W/m2
00:14 1.7 °C -2.1 °C 1022.9 hPa Calm     76% 0 mm meteobridge W/m2
00:19 1.8 °C -2.2 °C 1022.9 hPa Calm     75% 0 mm meteobridge W/m2
00:24 1.8 °C -2.3 °C 1022.9 hPa Calm   1.6 km/h 74% 0 mm meteobridge W/m2
00:29 1.8 °C -2.3 °C 1023.2 hPa Calm   3.2 km/h 74% 0 mm meteobridge W/m2
00:34 1.9 °C -2.2 °C 1023.2 hPa Calm     74% 0 mm meteobridge W/m2
00:39 1.9 °C -2.4 °C 1022.9 hPa Calm     73% 0 mm meteobridge W/m2
00:44 1.9 °C -2.4 °C 1022.9 hPa Calm   1.6 km/h 73% 0 mm meteobridge W/m2
00:49 1.9 °C -2.6 °C 1022.9 hPa Calm   1.6 km/h 72% 0 mm meteobridge W/m2
00:54 1.9 °C -2.6 °C 1022.9 hPa Calm   8 km/h 72% 0 mm meteobridge W/m2
00:59 1.8 °C -2.9 °C 1022.9 hPa Calm     71% 0 mm meteobridge W/m2
01:04 1.8 °C -2.7 °C 1022.9 hPa Calm   1.6 km/h 72% 0 mm meteobridge W/m2
01:09 1.7 °C -3 °C 1022.9 hPa Calm   1.6 km/h 71% 0 mm meteobridge W/m2
01:14 1.5 °C -3.2 °C 1022.9 hPa Calm     71% 0 mm meteobridge W/m2
01:19 1.4 °C -3.3 °C 1022.9 hPa Calm     71% 0 mm meteobridge W/m2
01:24 1.3 °C -3.4 °C 1022.9 hPa Calm     71% 0 mm meteobridge W/m2
01:29 1.1 °C -3.6 °C 1022.9 hPa Calm   3.2 km/h 71% 0 mm meteobridge W/m2
01:34 1 °C -3.7 °C 1022.9 hPa Calm     71% 0 mm meteobridge W/m2
01:39 0.9 °C -3.8 °C 1022.9 hPa Calm     71% 0 mm meteobridge W/m2
01:44 0.8 °C -3.7 °C 1022.9 hPa Calm     72% 0 mm meteobridge W/m2
01:49 0.7 °C -3.8 °C 1022.9 hPa Calm     72% 0 mm meteobridge W/m2
01:54 0.6 °C -3.9 °C 1022.6 hPa Calm     72% 0 mm meteobridge W/m2
01:59 0.6 °C -3.7 °C 1022.9 hPa Calm     73% 0 mm meteobridge W/m2
02:04 0.4 °C -3.7 °C 1022.9 hPa Calm     74% 0 mm meteobridge W/m2
02:09 0.3 °C -3.8 °C 1022.9 hPa Calm     74% 0 mm meteobridge W/m2
02:14 0.2 °C -3.9 °C 1022.9 hPa Calm     74% 0 mm meteobridge W/m2
02:19 0 °C -3.9 °C 1022.9 hPa Calm     75% 0 mm meteobridge W/m2
02:24 -0.1 °C -3.8 °C 1023.2 hPa Calm     76% 0 mm meteobridge W/m2
02:29 -0.3 °C -4 °C 1023.2 hPa Calm     76% 0 mm meteobridge W/m2
02:34 -0.4 °C -4.1 °C 1023.2 hPa Calm     76% 0 mm meteobridge W/m2
02:39 -0.4 °C -4.1 °C 1023.2 hPa Calm     76% 0 mm meteobridge W/m2
02:44 -0.6 °C -4.1 °C 1023.2 hPa Calm     77% 0 mm meteobridge W/m2
02:49 -0.7 °C -4.2 °C 1023.2 hPa Calm     77% 0 mm meteobridge W/m2
02:54 -0.8 °C -4.3 °C 1023.2 hPa Calm     77% 0 mm meteobridge W/m2
02:59 -0.8 °C -4.3 °C 1023.2 hPa Calm     77% 0 mm meteobridge W/m2
03:04 -0.9 °C -4.3 °C 1023.2 hPa Calm     78% 0 mm meteobridge W/m2
03:09 -0.9 °C -4.3 °C 1023.2 hPa Calm     78% 0 mm meteobridge W/m2
03:14 -0.9 °C -4.3 °C 1023.2 hPa Calm     78% 0 mm meteobridge W/m2
03:19 -0.9 °C -4.3 °C 1023.2 hPa Calm     78% 0 mm meteobridge W/m2
03:24 -0.9 °C -4.3 °C 1023.2 hPa Calm     78% 0 mm meteobridge W/m2
03:29 -0.9 °C -4.3 °C 1023.2 hPa Calm     78% 0 mm meteobridge W/m2
03:34 -1 °C -4.3 °C 1023.2 hPa Calm     78% 0 mm meteobridge W/m2
03:39 -1 °C -4.3 °C 1023.2 hPa Calm     78% 0 mm meteobridge W/m2
03:44 -1 °C -4.3 °C 1023.2 hPa Calm     78% 0 mm meteobridge W/m2
03:49 -1.1 °C -4.4 °C 1023.2 hPa Calm     78% 0 mm meteobridge W/m2
03:54 -1.1 °C -4.4 °C 1023.2 hPa Calm     78% 0 mm meteobridge W/m2
03:59 -1.2 °C -4.5 °C 1023.2 hPa Calm     78% 0 mm meteobridge W/m2
04:04 -1.2 °C -4.5 °C 1023.2 hPa Calm     78% 0 mm meteobridge W/m2
04:09 -1.3 °C -4.6 °C 1023.2 hPa Calm     78% 0 mm meteobridge W/m2
04:14 -1.3 °C -4.6 °C 1023.2 hPa Calm     78% 0 mm meteobridge W/m2
04:19 -1.4 °C -4.7 °C 1023.2 hPa Calm     78% 0 mm meteobridge W/m2
04:24 -1.6 °C -4.9 °C 1023.2 hPa Calm     78% 0 mm meteobridge W/m2
04:29 -1.6 °C -4.9 °C 1023.2 hPa Calm     78% 0 mm meteobridge W/m2
04:34 -1.7 °C -5 °C 1023.2 hPa Calm     78% 0 mm meteobridge W/m2
04:39 -1.8 °C -5.1 °C 1023.2 hPa Calm     78% 0 mm meteobridge W/m2
04:44 -1.9 °C -5.2 °C 1023.2 hPa Calm     78% 0 mm meteobridge W/m2
04:49 -1.9 °C -5.2 °C 1023.2 hPa Calm     78% 0 mm meteobridge W/m2
04:54 -2 °C -5.3 °C 1023.2 hPa Calm     78% 0 mm meteobridge W/m2
04:59 -2.1 °C -5.4 °C 1023.2 hPa Calm     78% 0 mm meteobridge W/m2
05:04 -2.1 °C -5.4 °C 1023.6 hPa Calm     78% 0 mm meteobridge W/m2
05:09 -2.2 °C -5.5 °C 1023.6 hPa Calm     78% 0 mm meteobridge W/m2
05:14 -2.2 °C -5.5 °C 1023.6 hPa Calm     78% 0 mm meteobridge W/m2
05:19 -2.2 °C -5.5 °C 1023.6 hPa Calm     78% 0 mm meteobridge W/m2
05:24 -2.1 °C -5.6 °C 1023.6 hPa Calm     77% 0 mm meteobridge W/m2
05:29 -2.1 °C -5.6 °C 1023.6 hPa Calm     77% 0 mm meteobridge W/m2
05:34 -2.2 °C -5.7 °C 1023.6 hPa Calm     77% 0 mm meteobridge W/m2
05:39 -2.2 °C -5.7 °C 1023.6 hPa Calm     77% 0 mm meteobridge W/m2
05:44 -2.2 °C -5.7 °C 1023.6 hPa Calm     77% 0 mm meteobridge W/m2
05:49 -2.2 °C -5.7 °C 1023.6 hPa Calm     77% 0 mm meteobridge W/m2
05:54 -2.3 °C -5.8 °C 1023.9 hPa Calm     77% 0 mm meteobridge W/m2
05:59 -2.3 °C -5.8 °C 1023.9 hPa Calm     77% 0 mm meteobridge W/m2
06:04 -2.3 °C -5.8 °C 1023.9 hPa Calm     77% 0 mm meteobridge W/m2
06:09 -2.4 °C -6.1 °C 1023.9 hPa Calm     76% 0 mm meteobridge W/m2
06:14 -2.3 °C -6 °C 1023.9 hPa Calm     76% 0 mm meteobridge W/m2
06:19 -2.4 °C -6.1 °C 1024.3 hPa Calm     76% 0 mm meteobridge W/m2
06:24 -2.4 °C -6.1 °C 1024.3 hPa Calm     76% 0 mm meteobridge W/m2
06:29 -2.4 °C -6.1 °C 1024.3 hPa Calm     76% 0 mm meteobridge W/m2
06:34 -2.4 °C -6.1 °C 1024.3 hPa Calm     76% 0 mm meteobridge W/m2
06:39 -2.5 °C -6.3 °C 1024.6 hPa Calm     75% 0 mm meteobridge W/m2
06:44 -2.5 °C -6.3 °C 1024.6 hPa Calm     75% 0 mm meteobridge W/m2
06:49 -2.5 °C -6.3 °C 1024.6 hPa Calm     75% 0 mm meteobridge W/m2
06:54 -2.5 °C -6.3 °C 1024.6 hPa Calm     75% 0 mm meteobridge W/m2
06:59 -2.6 °C -6.4 °C 1024.6 hPa Calm     75% 0 mm meteobridge W/m2
07:04 -2.6 °C -6.4 °C 1024.6 hPa Calm     75% 0 mm meteobridge W/m2
07:09 -2.6 °C -6.4 °C 1024.6 hPa Calm     75% 0 mm meteobridge W/m2
07:14 -2.7 °C -6.5 °C 1024.9 hPa Calm     75% 0 mm meteobridge W/m2
07:19 -2.7 °C -6.5 °C 1024.9 hPa Calm     75% 0 mm meteobridge W/m2
07:24 -2.7 °C -6.5 °C 1024.9 hPa Calm     75% 0 mm meteobridge W/m2
07:29 -2.8 °C -6.6 °C 1024.9 hPa Calm     75% 0 mm meteobridge W/m2
07:34 -2.8 °C -6.6 °C 1024.9 hPa Calm     75% 0 mm meteobridge W/m2
07:39 -2.8 °C -6.6 °C 1024.9 hPa Calm     75% 0 mm meteobridge W/m2
07:44 -2.9 °C -6.7 °C 1024.9 hPa Calm     75% 0 mm meteobridge W/m2
07:49 -2.9 °C -6.7 °C 1024.9 hPa Calm     75% 0 mm meteobridge W/m2
07:54 -2.9 °C -6.9 °C 1024.9 hPa Calm     74% 0 mm meteobridge W/m2
07:59 -2.9 °C -6.9 °C 1024.9 hPa Calm     74% 0 mm meteobridge W/m2
08:04 -2.9 °C -6.9 °C 1024.9 hPa Calm     74% 0 mm meteobridge W/m2
08:09 -2.8 °C -7 °C 1024.9 hPa Calm     73% 0 mm meteobridge W/m2
08:14 -2.8 °C -7 °C 1025.3 hPa Calm     73% 0 mm meteobridge W/m2
08:19 -2.7 °C -6.9 °C 1025.3 hPa Calm     73% 0 mm meteobridge W/m2
08:24 -2.6 °C -6.8 °C 1025.3 hPa Calm     73% 0 mm meteobridge W/m2
08:29 -2.4 °C -6.8 °C 1025.3 hPa Calm     72% 0 mm meteobridge W/m2
08:34 -2.3 °C -6.7 °C 1025.3 hPa Calm     72% 0 mm meteobridge W/m2
08:39 -2.2 °C -6.6 °C 1025.6 hPa Calm   1.6 km/h 72% 0 mm meteobridge W/m2
08:44 -1.9 °C -5.9 °C 1025.6 hPa Calm   4.8 km/h 74% 0 mm meteobridge W/m2
08:49 -1.6 °C -5.4 °C 1025.6 hPa Calm   3.2 km/h 75% 0 mm meteobridge W/m2
08:54 -1.2 °C -4.7 °C 1025.6 hPa Calm   1.6 km/h 77% 0 mm meteobridge W/m2
08:59 -0.9 °C -4.4 °C 1026 hPa Calm     77% 0 mm meteobridge W/m2
09:04 -0.6 °C -4 °C 1026 hPa Calm   6.4 km/h 78% 0 mm meteobridge W/m2
09:09 -0.2 °C -3.6 °C 1026 hPa Calm   4.8 km/h 78% 0 mm meteobridge W/m2
09:14 0 °C -3.5 °C 1026 hPa Calm     77% 0 mm meteobridge W/m2
09:19 0.2 °C -3.5 °C 1026 hPa Calm     76% 0 mm meteobridge W/m2
09:24 0.4 °C -3.3 °C 1026 hPa Calm     76% 0 mm meteobridge W/m2
09:29 0.7 °C -3.2 °C 1026 hPa Calm   12.9 km/h 75% 0 mm meteobridge W/m2
09:34 0.9 °C -3 °C 1026 hPa Calm   11.3 km/h 75% 0 mm meteobridge W/m2
09:39 1.2 °C -3.1 °C 1026 hPa WNW 3.2 km/h 3.2 km/h 73% 0 mm meteobridge W/m2
09:44 1.4 °C -3.1 °C 1026 hPa Calm   6.4 km/h 72% 0 mm meteobridge W/m2
09:49 1.6 °C -2.9 °C 1026.3 hPa Calm     72% 0 mm meteobridge W/m2
09:54 1.4 °C -3.5 °C 1026.3 hPa Calm   3.2 km/h 70% 0 mm meteobridge W/m2
09:59 1.4 °C -3.5 °C 1026.3 hPa NW 3.2 km/h 8 km/h 70% 0 mm meteobridge W/m2
10:04 1.4 °C -3.5 °C 1026.3 hPa Calm   9.7 km/h 70% 0 mm meteobridge W/m2
10:09 1.6 °C -3.7 °C 1026.6 hPa WNW 6.4 km/h 8 km/h 68% 0 mm meteobridge W/m2
10:14 1.7 °C -3.4 °C 1026.6 hPa Calm   3.2 km/h 69% 0 mm meteobridge W/m2
10:19 1.8 °C -3.3 °C 1026.3 hPa Calm   4.8 km/h 69% 0 mm meteobridge W/m2
10:24 2 °C -3.1 °C 1026.3 hPa Calm   4.8 km/h 69% 0 mm meteobridge W/m2
10:29 1.9 °C -3.6 °C 1026.6 hPa Calm     67% 0 mm meteobridge W/m2
10:34 1.9 °C -3.6 °C 1026.6 hPa NNW 9.7 km/h 11.3 km/h 67% 0 mm meteobridge W/m2
10:39 1.9 °C -3.4 °C 1026.6 hPa Calm     68% 0 mm meteobridge W/m2
10:44 2 °C -3.5 °C 1026.6 hPa Calm     67% 0 mm meteobridge W/m2
10:49 2.1 °C -3.2 °C 1026.3 hPa Calm   1.6 km/h 68% 0 mm meteobridge W/m2
10:54 2.1 °C -3.4 °C 1026.6 hPa NE 4.7 km/h 8 km/h 67% 0 mm meteobridge W/m2
10:59 2.1 °C -3.4 °C 1026.3 hPa North 6.4 km/h 12.9 km/h 67% 0 mm meteobridge W/m2
11:04 2.2 °C -3.3 °C 1026.6 hPa Calm   4.8 km/h 67% 0 mm meteobridge W/m2
11:09 2.3 °C -3.2 °C 1026.6 hPa WNW 1.4 km/h 6.4 km/h 67% 0 mm meteobridge W/m2
11:14 2.4 °C -3.1 °C 1026.6 hPa NNE 7.9 km/h 9.7 km/h 67% 0 mm meteobridge W/m2
11:19 2.4 °C -3.3 °C 1026.3 hPa Calm   12.9 km/h 66% 0 mm meteobridge W/m2
11:24 2.4 °C -3.3 °C 1026.3 hPa Calm   9.7 km/h 66% 0 mm meteobridge W/m2
11:29 2.4 °C -3.3 °C 1026.6 hPa NNW 4.7 km/h 4.8 km/h 66% 0 mm meteobridge W/m2
11:34 2.3 °C -3.2 °C 1026.3 hPa Calm   1.6 km/h 67% 0 mm meteobridge W/m2
11:39 2.4 °C -3.1 °C 1026.3 hPa Calm     67% 0 mm meteobridge W/m2
11:44 2.7 °C -2.4 °C 1026.6 hPa Calm   9.7 km/h 69% 0 mm meteobridge W/m2
11:49 2.7 °C -3.2 °C 1026.3 hPa North 3.2 km/h 6.4 km/h 65% 0 mm meteobridge W/m2
11:54 2.8 °C -2.9 °C 1026.3 hPa NW 1.4 km/h 12.9 km/h 66% 0 mm meteobridge W/m2
11:59 2.8 °C -3.1 °C 1026.6 hPa NW 1.4 km/h 16.1 km/h 65% 0 mm meteobridge W/m2
12:04 2.7 °C -3.2 °C 1026.3 hPa Calm   4.8 km/h 65% 0 mm meteobridge W/m2
12:09 2.8 °C -3.1 °C 1026.3 hPa NNE 1.4 km/h 11.3 km/h 65% 0 mm meteobridge W/m2
12:14 2.9 °C -3.2 °C 1026.3 hPa NNW 1.4 km/h 9.7 km/h 64% 0 mm meteobridge W/m2
12:19 3 °C -3.1 °C 1026.3 hPa Calm   6.4 km/h 64% 0 mm meteobridge W/m2
12:24 2.9 °C -3.5 °C 1026.3 hPa NW 3.2 km/h 9.7 km/h 63% 0 mm meteobridge W/m2
12:29 2.9 °C -3.5 °C 1026 hPa Calm   8 km/h 63% 0 mm meteobridge W/m2
12:34 2.9 °C -3.5 °C 1026 hPa Calm   11.3 km/h 63% 0 mm meteobridge W/m2
12:39 3.1 °C -3.3 °C 1026 hPa Calm   9.7 km/h 63% 0 mm meteobridge W/m2
12:44 3.3 °C -3.1 °C 1026 hPa Calm   4.8 km/h 63% 0 mm meteobridge W/m2
12:49 3.3 °C -3.7 °C 1026 hPa Calm   9.7 km/h 60% 0 mm meteobridge W/m2
12:54 3.1 °C -4.1 °C 1026 hPa Calm   6.4 km/h 59% 0 mm meteobridge W/m2
12:59 3.1 °C -3.9 °C 1026 hPa Calm   11.3 km/h 60% 0 mm meteobridge W/m2
13:04 3.2 °C -3.6 °C 1026 hPa SE 1.4 km/h 6.4 km/h 61% 0 mm meteobridge W/m2
13:09 3.4 °C -3.9 °C 1026 hPa Calm   6.4 km/h 59% 0 mm meteobridge W/m2
13:14 3.6 °C -3.7 °C 1026 hPa Calm   4.8 km/h 59% 0 mm meteobridge W/m2
13:19 3.6 °C -3.4 °C 1026.3 hPa Calm   8 km/h 60% 0 mm meteobridge W/m2
13:24 3.7 °C -3.6 °C 1026 hPa Calm   8 km/h 59% 0 mm meteobridge W/m2
13:29 3.6 °C -3.9 °C 1026 hPa WNW 9.7 km/h 9.7 km/h 58% 0 mm meteobridge W/m2
13:34 3.5 °C -3.8 °C 1026 hPa WNW 7.9 km/h 12.9 km/h 59% 0 mm meteobridge W/m2
13:39 3.4 °C -4.1 °C 1026.3 hPa NNE 3.2 km/h 12.9 km/h 58% 0 mm meteobridge W/m2
13:44 3.4 °C -3.9 °C 1026.3 hPa Calm   6.4 km/h 59% 0 mm meteobridge W/m2
13:49 3.6 °C -3.7 °C 1026 hPa Calm   4.8 km/h 59% 0 mm meteobridge W/m2
13:54 3.6 °C -3.7 °C 1026.3 hPa Calm   6.4 km/h 59% 0 mm meteobridge W/m2
13:59 3.6 °C -3.4 °C 1026.3 hPa NNW 1.4 km/h 6.4 km/h 60% 0 mm meteobridge W/m2
14:04 3.6 °C -3.7 °C 1026.3 hPa WNW 3.2 km/h 8 km/h 59% 0 mm meteobridge W/m2
14:09 3.3 °C -3.7 °C 1026 hPa Calm   6.4 km/h 60% 0 mm meteobridge W/m2
14:14 3.3 °C -3.7 °C 1026.3 hPa Calm   6.4 km/h 60% 0 mm meteobridge W/m2
14:19 3.3 °C -3.5 °C 1026.3 hPa Calm   11.3 km/h 61% 0 mm meteobridge W/m2
14:24 3.4 °C -3.6 °C 1026.3 hPa Calm   9.7 km/h 60% 0 mm meteobridge W/m2
14:29 3.2 °C -3.8 °C 1026.3 hPa Calm   3.2 km/h 60% 0 mm meteobridge W/m2
14:34 2.9 °C -4.1 °C 1026.3 hPa Calm   1.6 km/h 60% 0 mm meteobridge W/m2
14:39 3 °C -4 °C 1026.3 hPa West 1.4 km/h 1.6 km/h 60% 0 mm meteobridge W/m2
14:44 2.9 °C -4.1 °C 1026.3 hPa Calm   4.8 km/h 60% 0 mm meteobridge W/m2
14:49 2.8 °C -4.2 °C 1026.6 hPa NNE 4.7 km/h 11.3 km/h 60% 0 mm meteobridge W/m2
14:54 2.7 °C -4.3 °C 1026.6 hPa WSW 4.7 km/h 16.1 km/h 60% 0 mm meteobridge W/m2
14:59 2.6 °C -4.2 °C 1026.6 hPa WNW 3.2 km/h 8 km/h 61% 0 mm meteobridge W/m2
15:04 2.8 °C -4.2 °C 1026.6 hPa Calm   3.2 km/h 60% 0 mm meteobridge W/m2
15:09 2.8 °C -4.2 °C 1026.6 hPa Calm   8 km/h 60% 0 mm meteobridge W/m2
15:14 2.7 °C -4.3 °C 1026.6 hPa WNW 1.4 km/h 8 km/h 60% 0 mm meteobridge W/m2
15:19 2.5 °C -4.3 °C 1026.6 hPa Calm   4.8 km/h 61% 0 mm meteobridge W/m2
15:24 2.4 °C -4.4 °C 1026.6 hPa NNW 3.2 km/h 12.9 km/h 61% 0 mm meteobridge W/m2
15:29 2.3 °C -4.2 °C 1027 hPa Calm   8 km/h 62% 0 mm meteobridge W/m2
15:34 2.3 °C -4.2 °C 1027 hPa Calm   4.8 km/h 62% 0 mm meteobridge W/m2
15:39 2.2 °C -4.1 °C 1027 hPa Calm   12.9 km/h 63% 0 mm meteobridge W/m2
15:44 2.1 °C -4.2 °C 1027.3 hPa Calm   6.4 km/h 63% 0 mm meteobridge W/m2
15:49 2.1 °C -4.2 °C 1027.3 hPa Calm   4.8 km/h 63% 0 mm meteobridge W/m2
15:54 1.9 °C -4.4 °C 1027.3 hPa West 6.4 km/h 6.4 km/h 63% 0 mm meteobridge W/m2
15:59 1.8 °C -4.3 °C 1027.3 hPa NNW 4.7 km/h 9.7 km/h 64% 0 mm meteobridge W/m2
16:04 1.8 °C -4.1 °C 1027.3 hPa North 6.4 km/h 8 km/h 65% 0 mm meteobridge W/m2
16:09 1.7 °C -4.4 °C 1027.7 hPa Calm   3.2 km/h 64% 0 mm meteobridge W/m2
16:14 1.7 °C -4.2 °C 1027.7 hPa NW 6.4 km/h 6.4 km/h 65% 0 mm meteobridge W/m2
16:19 1.7 °C -4.2 °C 1027.7 hPa Calm     65% 0 mm meteobridge W/m2
16:24 1.7 °C -4.2 °C 1028 hPa Calm   1.6 km/h 65% 0 mm meteobridge W/m2
16:29 1.6 °C -4.3 °C 1028 hPa WNW 6.4 km/h 6.4 km/h 65% 0 mm meteobridge W/m2
16:34 1.6 °C -4.3 °C 1028.3 hPa Calm   6.4 km/h 65% 0 mm meteobridge W/m2
16:39 1.5 °C -4.2 °C 1028.3 hPa Calm   11.3 km/h 66% 0 mm meteobridge W/m2
16:44 1.4 °C -4.3 °C 1028.3 hPa North 3.2 km/h 12.9 km/h 66% 0 mm meteobridge W/m2
16:49 1.4 °C -4.3 °C 1028.3 hPa WSW 3.2 km/h 6.4 km/h 66% 0 mm meteobridge W/m2
16:54 1.3 °C -4.4 °C 1028.3 hPa Calm   6.4 km/h 66% 0 mm meteobridge W/m2
16:59 1.2 °C -4.4 °C 1028.3 hPa SSW 1.4 km/h 4.8 km/h 66% 0 mm meteobridge W/m2
17:04 1.2 °C -4.2 °C 1028.3 hPa WNW 4.7 km/h 6.4 km/h 67% 0 mm meteobridge W/m2
17:09 1.1 °C -4.3 °C 1028.3 hPa NNW 4.7 km/h 4.8 km/h 67% 0 mm meteobridge W/m2
17:14 1 °C -4.4 °C 1028.7 hPa Calm   3.2 km/h 67% 0 mm meteobridge W/m2
17:19 0.9 °C -4.5 °C 1028.3 hPa Calm   11.3 km/h 67% 0 mm meteobridge W/m2
17:24 0.9 °C -4.5 °C 1028.3 hPa Calm   4.8 km/h 67% 0 mm meteobridge W/m2
17:29 0.9 °C -4.3 °C 1028.3 hPa NW 4.7 km/h 9.7 km/h 68% 0 mm meteobridge W/m2
17:34 0.8 °C -4.6 °C 1028.7 hPa Calm   4.8 km/h 67% 0 mm meteobridge W/m2
17:39 0.8 °C -4.6 °C 1028.7 hPa Calm     67% 0 mm meteobridge W/m2
17:44 0.8 °C -4.6 °C 1028.7 hPa Calm   3.2 km/h 67% 0 mm meteobridge W/m2
17:49 0.7 °C -4.7 °C 1029 hPa Calm   3.2 km/h 67% 0 mm meteobridge W/m2
17:54 0.7 °C -4.7 °C 1028.7 hPa Calm     67% 0 mm meteobridge W/m2
17:59 0.7 °C -4.7 °C 1028.7 hPa Calm   3.2 km/h 67% 0 mm meteobridge W/m2
18:04 0.7 °C -4.5 °C 1029 hPa Calm     68% 0 mm meteobridge W/m2
18:09 0.6 °C -4.8 °C 1029 hPa Calm   3.2 km/h 67% 0 mm meteobridge W/m2
18:14 0.6 °C -4.8 °C 1029.3 hPa Calm     67% 0 mm meteobridge W/m2
18:19 0.6 °C -4.6 °C 1029.3 hPa Calm   6.4 km/h 68% 0 mm meteobridge W/m2
18:24 0.6 °C -4.4 °C 1029.3 hPa Calm   1.6 km/h 69% 0 mm meteobridge W/m2
18:29 0.5 °C -4.5 °C 1029.3 hPa NNW 4.7 km/h 4.8 km/h 69% 0 mm meteobridge W/m2
18:34 0.5 °C -4.3 °C 1029.3 hPa Calm   1.6 km/h 70% 0 mm meteobridge W/m2
18:39 0.4 °C -4.6 °C 1029.7 hPa WSW 3.2 km/h 8 km/h 69% 0 mm meteobridge W/m2
18:44 0.4 °C -4.6 °C 1029.7 hPa Calm     69% 0 mm meteobridge W/m2
18:49 0.4 °C -4.8 °C 1029.7 hPa Calm   8 km/h 68% 0 mm meteobridge W/m2
18:54 0.3 °C -4.9 °C 1029.7 hPa Calm   1.6 km/h 68% 0 mm meteobridge W/m2
18:59 0.3 °C -4.7 °C 1029.7 hPa Calm   4.8 km/h 69% 0 mm meteobridge W/m2
19:04 0.3 °C -4.7 °C 1029.7 hPa Calm     69% 0 mm meteobridge W/m2
19:09 0.3 °C -4.9 °C 1029.7 hPa Calm     68% 0 mm meteobridge W/m2
19:14 0.2 °C -4.8 °C 1030 hPa WNW 6.4 km/h 9.7 km/h 69% 0 mm meteobridge W/m2
19:19 0.2 °C -5 °C 1030 hPa Calm   1.6 km/h 68% 0 mm meteobridge W/m2
19:24 0.2 °C -4.8 °C 1030 hPa Calm   3.2 km/h 69% 0 mm meteobridge W/m2
19:29 0.1 °C -4.7 °C 1030 hPa Calm     70% 0 mm meteobridge W/m2
19:34 0 °C -5 °C 1030 hPa Calm   4.8 km/h 69% 0 mm meteobridge W/m2
19:39 -0.1 °C -4.9 °C 1030 hPa Calm     70% 0 mm meteobridge W/m2
19:44 -0.2 °C -5 °C 1030 hPa Calm     70% 0 mm meteobridge W/m2
19:49 -0.3 °C -5.1 °C 1030 hPa Calm     70% 0 mm meteobridge W/m2
19:54 -0.4 °C -5 °C 1030 hPa Calm     71% 0 mm meteobridge W/m2
19:59 -0.5 °C -5.1 °C 1030 hPa Calm     71% 0 mm meteobridge W/m2
20:04 -0.6 °C -5.2 °C 1030 hPa Calm     71% 0 mm meteobridge W/m2
20:09 -0.7 °C -5.3 °C 1030 hPa Calm     71% 0 mm meteobridge W/m2
20:14 -0.8 °C -5.2 °C 1030 hPa Calm     72% 0 mm meteobridge W/m2
20:19 -0.9 °C -5.3 °C 1030 hPa Calm     72% 0 mm meteobridge W/m2
20:24 -1.1 °C -5.5 °C 1030 hPa Calm     72% 0 mm meteobridge W/m2
20:29 -1.2 °C -5.4 °C 1030 hPa Calm     73% 0 mm meteobridge W/m2
20:34 -1.3 °C -5.5 °C 1030 hPa Calm     73% 0 mm meteobridge W/m2
20:39 -1.4 °C -5.6 °C 1030 hPa Calm     73% 0 mm meteobridge W/m2
20:44 -1.5 °C -5.5 °C 1030 hPa Calm     74% 0 mm meteobridge W/m2
20:49 -1.7 °C -5.7 °C 1030 hPa Calm     74% 0 mm meteobridge W/m2
20:54 -1.8 °C -5.8 °C 1030 hPa Calm     74% 0 mm meteobridge W/m2
20:59 -1.9 °C -5.7 °C 1030 hPa Calm     75% 0 mm meteobridge W/m2
21:04 -2 °C -5.8 °C 1030 hPa Calm     75% 0 mm meteobridge W/m2
21:09 -2.1 °C -5.9 °C 1030 hPa Calm     75% 0 mm meteobridge W/m2
21:14 -2.2 °C -5.9 °C 1030 hPa Calm     76% 0 mm meteobridge W/m2
21:19 -2.2 °C -5.9 °C 1030 hPa Calm     76% 0 mm meteobridge W/m2
21:24 -2.2 °C -5.7 °C 1030 hPa Calm     77% 0 mm meteobridge W/m2
21:29 -2.3 °C -5.8 °C 1030 hPa Calm     77% 0 mm meteobridge W/m2
21:34 -2.3 °C -5.8 °C 1030 hPa Calm     77% 0 mm meteobridge W/m2
21:39 -2.3 °C -5.8 °C 1030 hPa Calm     77% 0 mm meteobridge W/m2
21:44 -2.4 °C -5.7 °C 1030 hPa Calm     78% 0 mm meteobridge W/m2
21:49 -2.4 °C -5.7 °C 1030 hPa Calm     78% 0 mm meteobridge W/m2
21:54 -2.4 °C -5.7 °C 1030.4 hPa Calm     78% 0 mm meteobridge W/m2
21:59 -2.4 °C -5.7 °C 1030.4 hPa Calm     78% 0 mm meteobridge W/m2
22:04 -2.5 °C -5.8 °C 1030.4 hPa Calm     78% 0 mm meteobridge W/m2
22:09 -2.6 °C -5.9 °C 1030.4 hPa Calm     78% 0 mm meteobridge W/m2
22:14 -2.6 °C -5.9 °C 1030.4 hPa Calm     78% 0 mm meteobridge W/m2
22:19 -2.7 °C -6 °C 1030.7 hPa Calm     78% 0 mm meteobridge W/m2
22:24 -2.7 °C -6 °C 1030.7 hPa Calm     78% 0 mm meteobridge W/m2
22:29 -2.8 °C -6.1 °C 1030.7 hPa Calm     78% 0 mm meteobridge W/m2
22:34 -2.8 °C -6.1 °C 1030.7 hPa Calm     78% 0 mm meteobridge W/m2
22:39 -2.8 °C -6.1 °C 1031 hPa Calm     78% 0 mm meteobridge W/m2
22:44 -2.9 °C -6.2 °C 1031 hPa Calm     78% 0 mm meteobridge W/m2
22:49 -2.9 °C -6.2 °C 1031 hPa Calm     78% 0 mm meteobridge W/m2
22:54 -3 °C -5.2 °C 1031 hPa Calm     85% 0 mm meteobridge W/m2
22:59 -3.1 °C -6.4 °C 1031 hPa Calm     78% 0 mm meteobridge W/m2
23:03 -3.1 °C -6.4 °C 1030.7 hPa Calm     78% 0 mm meteobridge W/m2
23:08 -3.2 °C -6.5 °C 1031 hPa Calm     78% 0 mm meteobridge W/m2
23:14 -3.2 °C -6.5 °C 1031 hPa Calm     78% 0 mm meteobridge W/m2
23:19 -3.2 °C -6.5 °C 1031 hPa Calm     78% 0 mm meteobridge W/m2
23:24 -3.3 °C -6.4 °C 1031 hPa Calm     79% 0 mm meteobridge W/m2
23:29 -3.3 °C -6.6 °C 1031 hPa Calm     78% 0 mm meteobridge W/m2
23:34 -3.4 °C -6.7 °C 1031 hPa Calm     78% 0 mm meteobridge W/m2
23:39 -3.4 °C -6.7 °C 1031 hPa Calm     78% 0 mm meteobridge W/m2
23:44 -3.5 °C -6.6 °C 1031 hPa Calm     79% 0 mm meteobridge W/m2
23:49 -3.6 °C -6.7 °C 1031 hPa Calm     79% 0 mm meteobridge W/m2
23:54 -3.7 °C -7 °C 1031 hPa Calm     78% 0 mm meteobridge W/m2
23:59 -3.7 °C -7 °C 1031 hPa Calm     78% 0 mm meteobridge W/m2
EllijayWeather
Compliments of Weather Underground - 2.5 mb